Sunday, October 21, 2018, 10:17 PM EDT
Back to Local

KSNC, Chester, Chester Airport

Location: Chester, CT, United States Lat: 41.384
Local Time: 10:17 PM EDT ( 2:17 GMT) Lon: -72.506
Time Zone: US/Eastern Elev: 416 ft

Show me the last for .
Show Decoded

2018-10-21 21:55 METAR KSNC 220155Z AUTO 31005G11KT 10SM CLR 02/M06 A3010 RMK AO2 =
2018-10-21 21:35 METAR KSNC 220135Z AUTO 31007KT 10SM CLR 03/M06 A3009 RMK AO2 =
2018-10-21 21:15 METAR KSNC 220115Z AUTO 31009G14KT 10SM CLR 03/M06 A3008 RMK AO2 =
2018-10-21 20:55 METAR KSNC 220055Z AUTO 31010G16KT 10SM CLR 03/M06 A3007 RMK AO2 =
2018-10-21 20:35 METAR KSNC 220035Z AUTO 31008KT 10SM CLR 03/M06 A3006 RMK AO2 =
2018-10-21 20:15 METAR KSNC 220015Z AUTO 32011G18KT 10SM CLR 04/M07 A3006 RMK AO2 =
2018-10-21 19:55 METAR KSNC 212355Z AUTO 31007G14KT 10SM CLR 04/M06 A3005 RMK AO2 =
2018-10-21 19:35 METAR KSNC 212335Z AUTO VRB04G10KT 10SM CLR 04/M06 A3004 RMK AO2 =
2018-10-21 19:15 METAR KSNC 212315Z AUTO 31006G15KT 10SM CLR 04/M07 A3003 RMK AO2 =
2018-10-21 18:55 METAR KSNC 212255Z AUTO 31008G22KT 250V330 10SM CLR 04/M07 A3002 RMK AO2 =
2018-10-21 18:35 METAR KSNC 212235Z AUTO 32008G15KT 10SM CLR 04/M07 A3000 RMK AO2 =
2018-10-21 18:15 METAR KSNC 212215Z AUTO 32007G17KT 10SM CLR 05/M07 A2999 RMK AO2 =
2018-10-21 17:55 METAR KSNC 212155Z AUTO 32015G22KT 10SM CLR 05/M07 A2997 RMK AO2 =
2018-10-21 17:35 METAR KSNC 212135Z AUTO 32010G19KT 280V340 10SM CLR 06/M07 A2997 RMK AO2 =
2018-10-21 17:15 METAR KSNC 212115Z AUTO 32012G24KT 10SM CLR 07/M07 A2995 RMK AO2 =
2018-10-21 16:55 METAR KSNC 212055Z AUTO 32010G19KT 10SM CLR 07/M07 A2993 RMK AO2 =
2018-10-21 16:35 METAR KSNC 212035Z AUTO 33017G23KT 10SM CLR 08/M07 A2992 RMK AO2 =
2018-10-21 16:15 METAR KSNC 212015Z AUTO 33013G22KT 10SM CLR 08/M07 A2990 RMK AO2 =
2018-10-21 15:55 METAR KSNC 211955Z AUTO 33014G26KT 10SM CLR 08/M07 A2990 RMK AO2 =
2018-10-21 15:35 METAR KSNC 211935Z AUTO 31017G23KT 10SM CLR 08/M07 A2989 RMK AO2 =
2018-10-21 15:15 METAR KSNC 211915Z AUTO 33020G27KT 10SM CLR 08/M07 A2989 RMK AO2 =
2018-10-21 14:55 METAR KSNC 211855Z AUTO 32016G26KT 10SM CLR 08/M06 A2987 RMK AO2 =
2018-10-21 14:35 METAR KSNC 211835Z AUTO 33021G32KT 10SM CLR 08/M06 A2987 RMK AO2 =
2018-10-21 14:15 METAR KSNC 211815Z AUTO 32018G30KT 10SM CLR 07/M05 A2987 RMK AO2 =
2018-10-21 13:55 METAR KSNC 211755Z AUTO 33020G27KT 10SM FEW043 08/M05 A2986 RMK AO2 =
2018-10-21 13:35 METAR KSNC 211735Z AUTO 34016G23KT 10SM SCT043 08/M04 A2986 RMK AO2 =
2018-10-21 13:15 METAR KSNC 211715Z AUTO 33018G26KT 310V020 10SM BKN041 08/M04 A2986 RMK AO2 =
2018-10-21 12:55 METAR KSNC 211655Z AUTO 34016G23KT 10SM BKN041 08/M03 A2986 RMK AO2 =
2018-10-21 12:35 METAR KSNC 211635Z AUTO 34017G24KT 10SM BKN041 08/M03 A2985 RMK AO2 =
2018-10-21 12:15 METAR KSNC 211615Z AUTO 34015G25KT 10SM SCT039 08/M03 A2985 RMK AO2 =
2018-10-21 11:55 METAR KSNC 211555Z AUTO 32016G27KT 10SM FEW037 FEW100 08/M03 A2984 RMK AO2 =
2018-10-21 11:35 METAR KSNC 211535Z AUTO 33016G28KT 10SM CLR 08/M02 A2985 RMK AO2 =
2018-10-21 11:15 METAR KSNC 211515Z AUTO 33019G32KT 10SM CLR 08/M02 A2984 RMK AO2 =
2018-10-21 10:55 METAR KSNC 211455Z AUTO 31018G23KT 10SM CLR 08/M01 A2983 RMK AO2 =
2018-10-21 10:35 METAR KSNC 211435Z AUTO 33016G23KT 10SM CLR 07/M01 A2982 RMK AO2 =
2018-10-21 10:15 METAR KSNC 211415Z AUTO 32016G23KT 290V350 10SM CLR 07/M00 A2982 RMK AO2 =
2018-10-21 09:55 METAR KSNC 211355Z AUTO 32017G26KT 10SM FEW100 07/00 A2981 RMK AO2 =
2018-10-21 09:35 METAR KSNC 211335Z AUTO 32009G19KT 10SM SCT100 07/02 A2980 RMK AO2 =
2018-10-21 09:15 METAR KSNC 211315Z AUTO 33010G18KT 10SM FEW070 SCT100 08/03 A2978 RMK AO2 =
2018-10-21 08:55 METAR KSNC 211255Z AUTO 32009KT 10SM SCT095 07/05 A2977 RMK AO2 =
2018-10-21 08:35 METAR KSNC 211235Z AUTO 33009G14KT 10SM SCT029 BKN039 BKN075 07/05 A2975 RMK AO2
                 =
2018-10-21 08:15 METAR KSNC 211215Z AUTO 33006G14KT 7SM -RA FEW019 BKN028 OVC040 07/05 A2974 RMK
                 AO2 =
2018-10-21 07:55 METAR KSNC 211155Z AUTO 33009KT 6SM -RA FEW019 SCT030 BKN049 07/05 A2973 RMK AO2
                 =
2018-10-21 07:35 METAR KSNC 211135Z AUTO 34009KT 10SM SCT029 BKN050 OVC065 07/05 A2971 RMK AO2 =
2018-10-21 07:15 METAR KSNC 211115Z AUTO 34008KT 10SM SCT030 BKN037 OVC055 07/05 A2970 RMK AO2 =
2018-10-21 06:55 METAR KSNC 211055Z AUTO 34007KT 10SM -RA FEW001 SCT024 BKN037 07/05 A2968 RMK
                 AO2 =
2018-10-21 06:35 METAR KSNC 211035Z AUTO 01006KT 5SM -RA SCT001 BKN018 OVC050 07/05 A2966 RMK AO2
                 =
2018-10-21 06:15 METAR KSNC 211015Z AUTO 35008G16KT 7SM -RA FEW020 FEW037 OVC047 08/05 A2965 RMK
                 AO2 =
2018-10-21 05:55 METAR KSNC 210955Z AUTO 34010G15KT 10SM -RA FEW034 BKN047 OVC065 08/04 A2964 RMK
                 AO2 =
2018-10-21 05:35 METAR KSNC 210935Z AUTO 34012G19KT 10SM SCT046 BKN065 09/04 A2961 RMK AO2 =
2018-10-21 05:15 METAR KSNC 210915Z AUTO 34012G19KT 10SM BKN045 OVC055 09/05 A2961 RMK AO2 =
2018-10-21 04:55 METAR KSNC 210855Z AUTO 34012KT 10SM SCT045 BKN050 OVC065 09/05 A2960 RMK AO2 =
2018-10-21 04:35 METAR KSNC 210835Z AUTO 35010G17KT 10SM SCT044 BKN050 OVC075 09/05 A2958 RMK AO2
                 =
2018-10-21 04:15 METAR KSNC 210815Z AUTO 34009KT 10SM OVC043 09/05 A2957 RMK AO2 =
2018-10-21 03:55 METAR KSNC 210755Z AUTO 33007G13KT 10SM BKN044 OVC075 09/05 A2958 RMK AO2 =
2018-10-21 03:35 METAR KSNC 210735Z AUTO 34009KT 10SM BKN075 OVC085 09/05 A2957 RMK AO2 =
2018-10-21 03:15 METAR KSNC 210715Z AUTO 33009G14KT 10SM BKN065 BKN080 09/06 A2957 RMK AO2 =
2018-10-21 02:55 METAR KSNC 210655Z AUTO 33007G13KT 10SM FEW047 OVC065 09/06 A2958 RMK AO2 =
2018-10-21 02:35 METAR KSNC 210635Z AUTO 34007G12KT 10SM FEW048 BKN070 09/07 A2957 RMK AO2 =
2018-10-21 02:15 METAR KSNC 210615Z AUTO 33006KT 10SM FEW046 SCT075 SCT120 09/07 A2958 RMK AO2 =
2018-10-21 01:55 METAR KSNC 210555Z AUTO 31004KT 10SM BKN046 BKN060 BKN075 09/07 A2958 RMK AO2 =
2018-10-21 01:35 METAR KSNC 210535Z AUTO 31005KT 10SM BKN041 BKN048 OVC060 09/07 A2958 RMK AO2 =
2018-10-21 01:15 METAR KSNC 210515Z AUTO 32003KT 10SM BKN040 BKN060 OVC080 08/07 A2958 RMK AO2 =
2018-10-21 00:55 METAR KSNC 210455Z AUTO 00000KT 10SM OVC080 07/07 A2958 RMK AO2 =
2018-10-21 00:35 METAR KSNC 210435Z AUTO 00000KT 10SM BKN080 BKN120 07/06 A2959 RMK AO2 =
2018-10-21 00:15 METAR KSNC 210415Z AUTO 00000KT 10SM FEW110 07/06 A2959 RMK AO2 =
2018-10-20 23:55 METAR KSNC 210355Z AUTO 00000KT 10SM CLR 07/06 A2960 RMK AO2 =
2018-10-20 23:35 METAR KSNC 210335Z AUTO 00000KT 10SM FEW090 07/06 A2961 RMK AO2 =
2018-10-20 23:15 METAR KSNC 210315Z AUTO 00000KT 10SM BKN085 08/06 A2961 RMK AO2 =
2018-10-20 22:55 METAR KSNC 210255Z AUTO 00000KT 10SM BKN085 08/07 A2961 RMK AO2 =
2018-10-20 22:35 METAR KSNC 210235Z AUTO 00000KT 10SM FEW085 08/06 A2962 RMK AO2 =

Support USWX by starting your Amazon purchase here.